sensor_id;sensor_type;location;lat;lon;timestamp;P1;P2;P0
64229;PMS5003;50547;49.498;0.092;2022-12-18T00:01:33;53;46;
64229;PMS5003;50547;49.498;0.092;2022-12-18T00:04:04;42;40;
64229;PMS5003;50547;49.498;0.092;2022-12-18T00:06:35;43;41;
64229;PMS5003;50547;49.498;0.092;2022-12-18T00:09:04;42;40;
64229;PMS5003;50547;49.498;0.092;2022-12-18T00:11:33;41;38;
64229;PMS5003;50547;49.498;0.092;2022-12-18T00:14:03;42;40;
64229;PMS5003;50547;49.498;0.092;2022-12-18T00:16:32;42;40;
64229;PMS5003;50547;49.498;0.092;2022-12-18T00:19:02;41;38;
64229;PMS5003;50547;49.498;0.092;2022-12-18T00:21:32;41;38;
64229;PMS5003;50547;49.498;0.092;2022-12-18T00:24:02;41;38;
64229;PMS5003;50547;49.498;0.092;2022-12-18T00:26:32;40;36;
64229;PMS5003;50547;49.498;0.092;2022-12-18T00:29:04;41;38;
64229;PMS5003;50547;49.498;0.092;2022-12-18T00:31:35;41;38;
64229;PMS5003;50547;49.498;0.092;2022-12-18T00:34:06;40;36;
64229;PMS5003;50547;49.498;0.092;2022-12-18T00:36:38;38;35;
64229;PMS5003;50547;49.498;0.092;2022-12-18T00:39:10;40;36;
64229;PMS5003;50547;49.498;0.092;2022-12-18T00:41:39;38;35;
64229;PMS5003;50547;49.498;0.092;2022-12-18T00:44:09;41;38;
64229;PMS5003;50547;49.498;0.092;2022-12-18T00:46:41;38;35;
64229;PMS5003;50547;49.498;0.092;2022-12-18T00:49:11;40;36;
64229;PMS5003;50547;49.498;0.092;2022-12-18T00:51:40;38;35;
64229;PMS5003;50547;49.498;0.092;2022-12-18T00:54:09;38;35;
64229;PMS5003;50547;49.498;0.092;2022-12-18T00:56:39;38;35;
64229;PMS5003;50547;49.498;0.092;2022-12-18T00:59:08;40;36;
64229;PMS5003;50547;49.498;0.092;2022-12-18T01:01:37;38;35;
64229;PMS5003;50547;49.498;0.092;2022-12-18T01:04:07;41;38;
64229;PMS5003;50547;49.498;0.092;2022-12-18T01:06:36;40;36;
64229;PMS5003;50547;49.498;0.092;2022-12-18T01:09:05;40;36;
64229;PMS5003;50547;49.498;0.092;2022-12-18T01:11:34;41;38;
64229;PMS5003;50547;49.498;0.092;2022-12-18T01:14:04;38;35;
64229;PMS5003;50547;49.498;0.092;2022-12-18T01:16:33;38;35;
64229;PMS5003;50547;49.498;0.092;2022-12-18T01:19:02;37;33;
64229;PMS5003;50547;49.498;0.092;2022-12-18T01:21:32;41;38;
64229;PMS5003;50547;49.498;0.092;2022-12-18T01:24:01;40;36;
64229;PMS5003;50547;49.498;0.092;2022-12-18T01:26:31;38;35;
64229;PMS5003;50547;49.498;0.092;2022-12-18T01:29:00;40;36;
64229;PMS5003;50547;49.498;0.092;2022-12-18T01:31:31;41;38;
64229;PMS5003;50547;49.498;0.092;2022-12-18T01:34:02;41;38;
64229;PMS5003;50547;49.498;0.092;2022-12-18T01:36:33;41;38;
64229;PMS5003;50547;49.498;0.092;2022-12-18T01:39:06;40;36;
64229;PMS5003;50547;49.498;0.092;2022-12-18T01:41:39;41;38;
64229;PMS5003;50547;49.498;0.092;2022-12-18T01:44:46;40;36;
64229;PMS5003;50547;49.498;0.092;2022-12-18T01:47:26;41;38;
64229;PMS5003;50547;49.498;0.092;2022-12-18T01:50:00;41;38;
64229;PMS5003;50547;49.498;0.092;2022-12-18T01:52:33;41;38;
64229;PMS5003;50547;49.498;0.092;2022-12-18T01:55:03;41;38;
64229;PMS5003;50547;49.498;0.092;2022-12-18T01:57:35;37;33;
64229;PMS5003;50547;49.498;0.092;2022-12-18T02:00:07;40;36;
64229;PMS5003;50547;49.498;0.092;2022-12-18T02:02:39;40;36;
64229;PMS5003;50547;49.498;0.092;2022-12-18T02:05:09;38;35;
64229;PMS5003;50547;49.498;0.092;2022-12-18T02:07:42;38;35;
64229;PMS5003;50547;49.498;0.092;2022-12-18T02:10:19;41;38;
64229;PMS5003;50547;49.498;0.092;2022-12-18T02:12:53;38;35;
64229;PMS5003;50547;49.498;0.092;2022-12-18T02:15:31;40;36;
64229;PMS5003;50547;49.498;0.092;2022-12-18T02:18:08;38;35;
64229;PMS5003;50547;49.498;0.092;2022-12-18T02:20:43;38;35;
64229;PMS5003;50547;49.498;0.092;2022-12-18T02:23:19;38;35;
64229;PMS5003;50547;49.498;0.092;2022-12-18T02:26:07;37;33;
64229;PMS5003;50547;49.498;0.092;2022-12-18T02:28:44;37;33;
64229;PMS5003;50547;49.498;0.092;2022-12-18T02:31:19;37;33;
64229;PMS5003;50547;49.498;0.092;2022-12-18T02:33:52;37;33;
64229;PMS5003;50547;49.498;0.092;2022-12-18T02:36:25;37;33;
64229;PMS5003;50547;49.498;0.092;2022-12-18T02:38:57;37;33;
64229;PMS5003;50547;49.498;0.092;2022-12-18T02:41:29;37;33;
64229;PMS5003;50547;49.498;0.092;2022-12-18T02:44:06;37;33;
64229;PMS5003;50547;49.498;0.092;2022-12-18T02:46:38;37;33;
64229;PMS5003;50547;49.498;0.092;2022-12-18T02:49:12;37;33;
64229;PMS5003;50547;49.498;0.092;2022-12-18T02:51:51;37;33;
64229;PMS5003;50547;49.498;0.092;2022-12-18T02:54:27;37;33;
64229;PMS5003;50547;49.498;0.092;2022-12-18T02:57:10;36;31;
64229;PMS5003;50547;49.498;0.092;2022-12-18T02:59:49;37;33;
64229;PMS5003;50547;49.498;0.092;2022-12-18T03:02:28;37;33;
64229;PMS5003;50547;49.498;0.092;2022-12-18T03:05:04;38;35;
64229;PMS5003;50547;49.498;0.092;2022-12-18T03:07:42;37;33;
64229;PMS5003;50547;49.498;0.092;2022-12-18T03:10:18;38;35;
64229;PMS5003;50547;49.498;0.092;2022-12-18T03:12:53;38;35;
64229;PMS5003;50547;49.498;0.092;2022-12-18T03:15:30;37;33;
64229;PMS5003;50547;49.498;0.092;2022-12-18T03:18:04;38;35;
64229;PMS5003;50547;49.498;0.092;2022-12-18T03:20:37;37;33;
64229;PMS5003;50547;49.498;0.092;2022-12-18T03:23:12;38;35;
64229;PMS5003;50547;49.498;0.092;2022-12-18T03:25:52;37;33;
64229;PMS5003;50547;49.498;0.092;2022-12-18T03:28:26;37;33;
64229;PMS5003;50547;49.498;0.092;2022-12-18T03:31:00;37;33;
64229;PMS5003;50547;49.498;0.092;2022-12-18T03:33:34;37;33;
64229;PMS5003;50547;49.498;0.092;2022-12-18T03:36:07;37;33;
64229;PMS5003;50547;49.498;0.092;2022-12-18T03:38:36;38;35;
64229;PMS5003;50547;49.498;0.092;2022-12-18T03:41:07;38;35;
64229;PMS5003;50547;49.498;0.092;2022-12-18T03:43:46;37;33;
64229;PMS5003;50547;49.498;0.092;2022-12-18T03:46:21;40;36;
64229;PMS5003;50547;49.498;0.092;2022-12-18T03:48:59;38;35;
64229;PMS5003;50547;49.498;0.092;2022-12-18T03:51:32;37;33;
64229;PMS5003;50547;49.498;0.092;2022-12-18T03:54:08;38;35;
64229;PMS5003;50547;49.498;0.092;2022-12-18T03:56:40;38;35;
64229;PMS5003;50547;49.498;0.092;2022-12-18T03:59:14;37;33;
64229;PMS5003;50547;49.498;0.092;2022-12-18T04:01:45;37;33;
64229;PMS5003;50547;49.498;0.092;2022-12-18T04:04:17;37;33;
64229;PMS5003;50547;49.498;0.092;2022-12-18T04:06:49;36;31;
64229;PMS5003;50547;49.498;0.092;2022-12-18T04:09:19;36;31;
64229;PMS5003;50547;49.498;0.092;2022-12-18T04:11:49;37;33;
64229;PMS5003;50547;49.498;0.092;2022-12-18T04:14:20;36;31;
64229;PMS5003;50547;49.498;0.092;2022-12-18T04:16:49;37;33;
64229;PMS5003;50547;49.498;0.092;2022-12-18T04:19:19;37;33;
64229;PMS5003;50547;49.498;0.092;2022-12-18T04:21:48;37;33;
64229;PMS5003;50547;49.498;0.092;2022-12-18T04:24:17;37;33;
64229;PMS5003;50547;49.498;0.092;2022-12-18T04:26:46;36;31;
64229;PMS5003;50547;49.498;0.092;2022-12-18T04:29:15;36;31;
64229;PMS5003;50547;49.498;0.092;2022-12-18T04:31:45;36;31;
64229;PMS5003;50547;49.498;0.092;2022-12-18T04:34:14;35;30;
64229;PMS5003;50547;49.498;0.092;2022-12-18T04:36:43;35;30;
64229;PMS5003;50547;49.498;0.092;2022-12-18T04:39:12;34;29;
64229;PMS5003;50547;49.498;0.092;2022-12-18T04:41:42;36;31;
64229;PMS5003;50547;49.498;0.092;2022-12-18T04:44:11;35;30;
64229;PMS5003;50547;49.498;0.092;2022-12-18T04:46:40;35;30;
64229;PMS5003;50547;49.498;0.092;2022-12-18T04:49:09;35;30;
64229;PMS5003;50547;49.498;0.092;2022-12-18T04:51:38;35;30;
64229;PMS5003;50547;49.498;0.092;2022-12-18T04:54:08;34;29;
64229;PMS5003;50547;49.498;0.092;2022-12-18T04:56:37;34;29;
64229;PMS5003;50547;49.498;0.092;2022-12-18T04:59:06;34;29;
64229;PMS5003;50547;49.498;0.092;2022-12-18T05:01:35;34;29;
64229;PMS5003;50547;49.498;0.092;2022-12-18T05:04:05;34;29;
64229;PMS5003;50547;49.498;0.092;2022-12-18T05:06:34;34;29;
64229;PMS5003;50547;49.498;0.092;2022-12-18T05:09:03;34;29;
64229;PMS5003;50547;49.498;0.092;2022-12-18T05:11:32;34;29;
64229;PMS5003;50547;49.498;0.092;2022-12-18T05:14:01;34;29;
64229;PMS5003;50547;49.498;0.092;2022-12-18T05:16:31;34;29;
64229;PMS5003;50547;49.498;0.092;2022-12-18T05:19:00;32;28;
64229;PMS5003;50547;49.498;0.092;2022-12-18T05:21:29;31;27;
64229;PMS5003;50547;49.498;0.092;2022-12-18T05:23:59;33;28;
64229;PMS5003;50547;49.498;0.092;2022-12-18T05:26:28;33;28;
64229;PMS5003;50547;49.498;0.092;2022-12-18T05:28:57;31;27;
64229;PMS5003;50547;49.498;0.092;2022-12-18T05:31:24;34;29;
64229;PMS5003;50547;49.498;0.092;2022-12-18T05:33:53;31;27;
64229;PMS5003;50547;49.498;0.092;2022-12-18T05:36:23;34;29;
64229;PMS5003;50547;49.498;0.092;2022-12-18T05:38:52;30;26;
64229;PMS5003;50547;49.498;0.092;2022-12-18T05:41:21;30;26;
64229;PMS5003;50547;49.498;0.092;2022-12-18T05:43:51;30;26;
64229;PMS5003;50547;49.498;0.092;2022-12-18T05:46:20;29;25;
64229;PMS5003;50547;49.498;0.092;2022-12-18T05:48:50;30;26;
64229;PMS5003;50547;49.498;0.092;2022-12-18T05:51:21;29;25;
64229;PMS5003;50547;49.498;0.092;2022-12-18T05:53:51;29;25;
64229;PMS5003;50547;49.498;0.092;2022-12-18T05:56:21;29;25;
64229;PMS5003;50547;49.498;0.092;2022-12-18T05:58:52;30;26;
64229;PMS5003;50547;49.498;0.092;2022-12-18T06:01:23;28;24;
64229;PMS5003;50547;49.498;0.092;2022-12-18T06:03:54;30;26;
64229;PMS5003;50547;49.498;0.092;2022-12-18T06:06:25;30;26;
64229;PMS5003;50547;49.498;0.092;2022-12-18T06:08:56;29;25;
64229;PMS5003;50547;49.498;0.092;2022-12-18T06:11:26;29;25;
64229;PMS5003;50547;49.498;0.092;2022-12-18T06:13:56;30;26;
64229;PMS5003;50547;49.498;0.092;2022-12-18T06:16:25;28;24;
64229;PMS5003;50547;49.498;0.092;2022-12-18T06:18:55;29;25;
64229;PMS5003;50547;49.498;0.092;2022-12-18T06:21:25;27;23;
64229;PMS5003;50547;49.498;0.092;2022-12-18T06:23:55;28;24;
64229;PMS5003;50547;49.498;0.092;2022-12-18T06:26:25;29;25;
64229;PMS5003;50547;49.498;0.092;2022-12-18T06:28:55;28;24;
64229;PMS5003;50547;49.498;0.092;2022-12-18T06:31:24;28;24;
64229;PMS5003;50547;49.498;0.092;2022-12-18T06:33:54;29;25;
64229;PMS5003;50547;49.498;0.092;2022-12-18T06:36:24;30;26;
64229;PMS5003;50547;49.498;0.092;2022-12-18T06:38:53;30;26;
64229;PMS5003;50547;49.498;0.092;2022-12-18T06:41:23;29;25;
64229;PMS5003;50547;49.498;0.092;2022-12-18T06:43:52;29;25;
64229;PMS5003;50547;49.498;0.092;2022-12-18T06:46:22;28;24;
64229;PMS5003;50547;49.498;0.092;2022-12-18T06:48:51;30;26;
64229;PMS5003;50547;49.498;0.092;2022-12-18T06:51:21;27;23;
64229;PMS5003;50547;49.498;0.092;2022-12-18T06:53:53;27;23;
64229;PMS5003;50547;49.498;0.092;2022-12-18T06:56:22;28;24;
64229;PMS5003;50547;49.498;0.092;2022-12-18T06:58:52;28;24;
64229;PMS5003;50547;49.498;0.092;2022-12-18T07:01:21;30;26;
64229;PMS5003;50547;49.498;0.092;2022-12-18T07:03:51;29;25;
64229;PMS5003;50547;49.498;0.092;2022-12-18T07:06:22;29;25;
64229;PMS5003;50547;49.498;0.092;2022-12-18T07:08:54;28;24;
64229;PMS5003;50547;49.498;0.092;2022-12-18T07:11:24;29;25;
64229;PMS5003;50547;49.498;0.092;2022-12-18T07:13:53;27;23;
64229;PMS5003;50547;49.498;0.092;2022-12-18T07:16:23;27;23;
64229;PMS5003;50547;49.498;0.092;2022-12-18T07:18:52;28;24;
64229;PMS5003;50547;49.498;0.092;2022-12-18T07:21:19;28;24;
64229;PMS5003;50547;49.498;0.092;2022-12-18T07:23:50;27;23;
